WEATHER/FLIGHT PLANNING

Hattiesburg Radar

 

 

 

 

Weather Links

Flight Planning Links

 

METAR

2020/04/01 06:53 KHBG 010653Z AUTO 00000KT 10SM CLR 09/08 A2999 RMK AO2 SLP156 T00940078

TAF

2020/04/01 06:45 TAF KHBG 010541Z 0106/0206 34004KT P6SM SKC TEMPO 0110/0113 3SM BR